sensor_id;sensor_type;location;lat;lon;timestamp;pressure;altitude;pressure_sealevel;temperature;humidity
84528;BME280;74768;51.152;6.196;2024-01-16T00:00:22;100322.56;;;0.19;100.00
84528;BME280;74768;51.152;6.196;2024-01-16T00:02:47;100329.47;;;0.20;99.86
84528;BME280;74768;51.152;6.196;2024-01-16T00:05:13;100331.13;;;0.32;99.69
84528;BME280;74768;51.152;6.196;2024-01-16T00:07:39;100327.69;;;0.27;99.58
84528;BME280;74768;51.152;6.196;2024-01-16T00:10:07;100328.56;;;0.23;99.28
84528;BME280;74768;51.152;6.196;2024-01-16T00:12:32;100320.81;;;0.21;99.20
84528;BME280;74768;51.152;6.196;2024-01-16T00:14:57;100335.50;;;0.22;99.62
84528;BME280;74768;51.152;6.196;2024-01-16T00:17:22;100339.00;;;0.17;99.56
84528;BME280;74768;51.152;6.196;2024-01-16T00:19:48;100339.00;;;0.15;99.66
84528;BME280;74768;51.152;6.196;2024-01-16T00:22:13;100334.66;;;0.17;99.62
84528;BME280;74768;51.152;6.196;2024-01-16T00:24:38;100332.94;;;0.16;99.67
84528;BME280;74768;51.152;6.196;2024-01-16T00:27:04;100339.84;;;0.19;99.83
84528;BME280;74768;51.152;6.196;2024-01-16T00:29:29;100332.06;;;0.19;99.91
84528;BME280;74768;51.152;6.196;2024-01-16T00:31:55;100335.53;;;0.19;99.71
84528;BME280;74768;51.152;6.196;2024-01-16T00:34:21;100340.72;;;0.18;100.00
84528;BME280;74768;51.152;6.196;2024-01-16T00:36:46;100345.91;;;0.16;100.00
84528;BME280;74768;51.152;6.196;2024-01-16T00:39:11;100344.13;;;0.24;99.64
84528;BME280;74768;51.152;6.196;2024-01-16T00:41:38;100344.13;;;0.29;99.73
84528;BME280;74768;51.152;6.196;2024-01-16T00:44:03;100339.81;;;0.25;99.73
84528;BME280;74768;51.152;6.196;2024-01-16T00:46:29;100344.13;;;0.27;99.59
84528;BME280;74768;51.152;6.196;2024-01-16T00:48:54;100345.00;;;0.28;99.55
84528;BME280;74768;51.152;6.196;2024-01-16T00:51:19;100350.19;;;0.26;99.47
84528;BME280;74768;51.152;6.196;2024-01-16T00:53:45;100357.13;;;0.24;99.69
84528;BME280;74768;51.152;6.196;2024-01-16T00:56:10;100358.84;;;0.22;99.47
84528;BME280;74768;51.152;6.196;2024-01-16T00:58:37;100347.63;;;0.20;99.90
84528;BME280;74768;51.152;6.196;2024-01-16T01:01:03;100350.22;;;0.22;99.85
84528;BME280;74768;51.152;6.196;2024-01-16T01:03:28;100363.22;;;0.20;99.58
84528;BME280;74768;51.152;6.196;2024-01-16T01:05:54;100349.38;;;0.20;99.89
84528;BME280;74768;51.152;6.196;2024-01-16T01:08:19;100357.16;;;0.20;99.62
84528;BME280;74768;51.152;6.196;2024-01-16T01:10:45;100359.75;;;0.20;99.97
84528;BME280;74768;51.152;6.196;2024-01-16T01:13:10;100371.84;;;0.19;99.89
84528;BME280;74768;51.152;6.196;2024-01-16T01:15:35;100372.72;;;0.20;100.00
84528;BME280;74768;51.152;6.196;2024-01-16T01:18:01;100372.69;;;0.29;99.44
84528;BME280;74768;51.152;6.196;2024-01-16T01:20:26;100377.00;;;0.24;99.48
84528;BME280;74768;51.152;6.196;2024-01-16T01:22:51;100376.16;;;0.25;99.34
84528;BME280;74768;51.152;6.196;2024-01-16T01:25:17;100370.13;;;0.21;99.21
84528;BME280;74768;51.152;6.196;2024-01-16T01:27:42;100378.78;;;0.19;99.17
84528;BME280;74768;51.152;6.196;2024-01-16T01:30:08;100377.00;;;0.22;99.19
84528;BME280;74768;51.152;6.196;2024-01-16T01:32:35;100371.81;;;0.22;99.16
84528;BME280;74768;51.152;6.196;2024-01-16T01:35:01;100364.03;;;0.25;98.93
84528;BME280;74768;51.152;6.196;2024-01-16T01:37:26;100381.34;;;0.23;99.24
84528;BME280;74768;51.152;6.196;2024-01-16T01:39:51;100381.34;;;0.23;99.26
84528;BME280;74768;51.152;6.196;2024-01-16T01:42:17;100386.56;;;0.20;99.09
84528;BME280;74768;51.152;6.196;2024-01-16T01:44:42;100385.69;;;0.15;99.21
84528;BME280;74768;51.152;6.196;2024-01-16T01:47:08;100388.28;;;0.17;99.55
84528;BME280;74768;51.152;6.196;2024-01-16T01:49:34;100386.53;;;0.23;99.39
84528;BME280;74768;51.152;6.196;2024-01-16T01:52:00;100386.56;;;0.20;99.20
84528;BME280;74768;51.152;6.196;2024-01-16T01:54:26;100390.03;;;0.21;99.45
84528;BME280;74768;51.152;6.196;2024-01-16T01:56:52;100390.88;;;0.21;99.10
84528;BME280;74768;51.152;6.196;2024-01-16T01:59:17;100398.66;;;0.20;99.57
84528;BME280;74768;51.152;6.196;2024-01-16T02:01:45;100398.63;;;0.24;99.42
84528;BME280;74768;51.152;6.196;2024-01-16T02:04:16;100400.38;;;0.22;99.38
84528;BME280;74768;51.152;6.196;2024-01-16T02:06:43;100403.84;;;0.20;99.39
84528;BME280;74768;51.152;6.196;2024-01-16T02:09:09;100398.66;;;0.20;99.20
84528;BME280;74768;51.152;6.196;2024-01-16T02:11:35;100403.00;;;0.16;99.33
84528;BME280;74768;51.152;6.196;2024-01-16T02:14:00;100404.72;;;0.17;99.51
84528;BME280;74768;51.152;6.196;2024-01-16T02:16:25;100405.59;;;0.15;99.41
84528;BME280;74768;51.152;6.196;2024-01-16T02:18:52;100403.00;;;0.15;99.41
84528;BME280;74768;51.152;6.196;2024-01-16T02:21:20;100409.03;;;0.18;99.35
84528;BME280;74768;51.152;6.196;2024-01-16T02:23:46;100391.72;;;0.25;99.07
84528;BME280;74768;51.152;6.196;2024-01-16T02:26:14;100400.41;;;0.21;99.21
84528;BME280;74768;51.152;6.196;2024-01-16T02:28:39;100399.53;;;0.20;99.22
84528;BME280;74768;51.152;6.196;2024-01-16T02:31:05;100397.81;;;0.21;98.69
84528;BME280;74768;51.152;6.196;2024-01-16T02:33:32;100398.66;;;0.21;99.13
84528;BME280;74768;51.152;6.196;2024-01-16T02:35:57;100396.94;;;0.20;99.00
84528;BME280;74768;51.152;6.196;2024-01-16T02:38:22;100396.06;;;0.18;99.04
84528;BME280;74768;51.152;6.196;2024-01-16T02:40:48;100396.94;;;0.20;98.83
84528;BME280;74768;51.152;6.196;2024-01-16T02:43:13;100390.03;;;0.16;99.08
84528;BME280;74768;51.152;6.196;2024-01-16T02:45:38;100387.41;;;0.18;99.12
84528;BME280;74768;51.152;6.196;2024-01-16T02:48:04;100389.16;;;0.19;99.26
84528;BME280;74768;51.152;6.196;2024-01-16T02:50:29;100401.25;;;0.17;99.29
84528;BME280;74768;51.152;6.196;2024-01-16T02:52:55;100397.81;;;0.18;99.23
84528;BME280;74768;51.152;6.196;2024-01-16T02:55:20;100386.56;;;0.17;99.34
84528;BME280;74768;51.152;6.196;2024-01-16T02:57:45;100396.03;;;0.23;99.10
84528;BME280;74768;51.152;6.196;2024-01-16T03:00:11;100403.00;;;0.19;99.30
84528;BME280;74768;51.152;6.196;2024-01-16T03:02:36;100394.34;;;0.20;99.14
84528;BME280;74768;51.152;6.196;2024-01-16T03:05:05;100391.75;;;0.20;99.13
84528;BME280;74768;51.152;6.196;2024-01-16T03:07:30;100399.53;;;0.17;99.14
84528;BME280;74768;51.152;6.196;2024-01-16T03:09:56;100394.38;;;0.13;99.18
84528;BME280;74768;51.152;6.196;2024-01-16T03:12:21;100402.16;;;0.14;99.47
84528;BME280;74768;51.152;6.196;2024-01-16T03:14:46;100390.88;;;0.20;99.50
84528;BME280;74768;51.152;6.196;2024-01-16T03:17:12;100383.97;;;0.17;99.60
84528;BME280;74768;51.152;6.196;2024-01-16T03:19:37;100390.88;;;0.15;99.88
84528;BME280;74768;51.152;6.196;2024-01-16T03:22:02;100390.03;;;0.16;99.73
84528;BME280;74768;51.152;6.196;2024-01-16T03:24:28;100384.78;;;0.24;99.31
84528;BME280;74768;51.152;6.196;2024-01-16T03:26:54;100381.38;;;0.19;99.47
84528;BME280;74768;51.152;6.196;2024-01-16T03:29:19;100389.13;;;0.23;99.78
84528;BME280;74768;51.152;6.196;2024-01-16T03:31:44;100389.97;;;0.22;99.78
84528;BME280;74768;51.152;6.196;2024-01-16T03:34:10;100390.88;;;0.20;99.66
84528;BME280;74768;51.152;6.196;2024-01-16T03:36:36;100396.09;;;0.14;99.50
84528;BME280;74768;51.152;6.196;2024-01-16T03:39:01;100388.31;;;0.12;99.49
84528;BME280;74768;51.152;6.196;2024-01-16T03:41:26;100384.00;;;0.14;99.68
84528;BME280;74768;51.152;6.196;2024-01-16T03:43:51;100378.81;;;0.13;99.65
84528;BME280;74768;51.152;6.196;2024-01-16T03:46:18;100375.38;;;0.06;99.68
84528;BME280;74768;51.152;6.196;2024-01-16T03:48:44;100375.34;;;0.09;99.48
84528;BME280;74768;51.152;6.196;2024-01-16T03:51:09;100374.47;;;0.10;99.66
84528;BME280;74768;51.152;6.196;2024-01-16T03:53:35;100378.81;;;0.10;99.42
84528;BME280;74768;51.152;6.196;2024-01-16T03:56:00;100374.53;;;0.04;99.60
84528;BME280;74768;51.152;6.196;2024-01-16T03:58:25;100367.59;;;0.02;99.50
84528;BME280;74768;51.152;6.196;2024-01-16T04:00:51;100365.88;;;0.00;100.00
84528;BME280;74768;51.152;6.196;2024-01-16T04:03:18;100372.78;;;0.05;99.55
84528;BME280;74768;51.152;6.196;2024-01-16T04:05:43;100368.47;;;0.04;99.54
84528;BME280;74768;51.152;6.196;2024-01-16T04:08:09;100367.59;;;0.02;99.68
84528;BME280;74768;51.152;6.196;2024-01-16T04:10:34;100374.50;;;0.01;99.53
84528;BME280;74768;51.152;6.196;2024-01-16T04:13:01;100370.22;;;-0.03;99.16
84528;BME280;74768;51.152;6.196;2024-01-16T04:15:27;100371.09;;;-0.07;99.41
84528;BME280;74768;51.152;6.196;2024-01-16T04:17:52;100373.69;;;-0.04;99.34
84528;BME280;74768;51.152;6.196;2024-01-16T04:20:17;100367.66;;;-0.09;99.35
84528;BME280;74768;51.152;6.196;2024-01-16T04:22:43;100368.50;;;-0.07;99.02
84528;BME280;74768;51.152;6.196;2024-01-16T04:25:08;100373.72;;;-0.18;99.21
84528;BME280;74768;51.152;6.196;2024-01-16T04:27:34;100365.13;;;-0.24;98.82
84528;BME280;74768;51.152;6.196;2024-01-16T04:29:59;100367.72;;;-0.30;98.73
84528;BME280;74768;51.152;6.196;2024-01-16T04:32:25;100360.84;;;-0.42;98.61
84528;BME280;74768;51.152;6.196;2024-01-16T04:34:50;100377.28;;;-0.49;98.99
84528;BME280;74768;51.152;6.196;2024-01-16T04:37:15;100372.97;;;-0.58;98.75
84528;BME280;74768;51.152;6.196;2024-01-16T04:39:41;100370.38;;;-0.65;99.09
84528;BME280;74768;51.152;6.196;2024-01-16T04:42:06;100367.81;;;-0.70;99.20
84528;BME280;74768;51.152;6.196;2024-01-16T04:44:31;100380.78;;;-0.74;99.21
84528;BME280;74768;51.152;6.196;2024-01-16T04:46:57;100374.72;;;-0.78;99.66
84528;BME280;74768;51.152;6.196;2024-01-16T04:49:22;100377.31;;;-0.83;99.29
84528;BME280;74768;51.152;6.196;2024-01-16T04:51:47;100377.31;;;-0.86;99.50
84528;BME280;74768;51.152;6.196;2024-01-16T04:54:12;100385.09;;;-0.96;99.33
84528;BME280;74768;51.152;6.196;2024-01-16T04:56:38;100381.66;;;-1.04;99.36
84528;BME280;74768;51.152;6.196;2024-01-16T04:59:03;100387.69;;;-1.11;99.42
84528;BME280;74768;51.152;6.196;2024-01-16T05:01:28;100373.88;;;-1.15;99.08
84528;BME280;74768;51.152;6.196;2024-01-16T05:03:54;100381.66;;;-1.06;99.39
84528;BME280;74768;51.152;6.196;2024-01-16T05:06:19;100379.06;;;-1.03;99.41
84528;BME280;74768;51.152;6.196;2024-01-16T05:08:45;100373.91;;;-0.95;99.21
84528;BME280;74768;51.152;6.196;2024-01-16T05:11:10;100369.56;;;-1.05;98.87
84528;BME280;74768;51.152;6.196;2024-01-16T05:13:36;100376.47;;;-1.13;99.05
84528;BME280;74768;51.152;6.196;2024-01-16T05:16:01;100370.41;;;-1.20;99.65
84528;BME280;74768;51.152;6.196;2024-01-16T05:18:26;100363.50;;;-1.24;99.55
84528;BME280;74768;51.152;6.196;2024-01-16T05:20:52;100368.69;;;-1.29;98.81
84528;BME280;74768;51.152;6.196;2024-01-16T05:23:17;100358.34;;;-1.32;99.04
84528;BME280;74768;51.152;6.196;2024-01-16T05:25:43;100351.41;;;-1.30;99.13
84528;BME280;74768;51.152;6.196;2024-01-16T05:28:08;100357.47;;;-1.34;99.26
84528;BME280;74768;51.152;6.196;2024-01-16T05:30:33;100346.25;;;-1.28;99.85
84528;BME280;74768;51.152;6.196;2024-01-16T05:32:59;100354.00;;;-1.31;99.58
84528;BME280;74768;51.152;6.196;2024-01-16T05:35:26;100353.16;;;-1.30;99.79
84528;BME280;74768;51.152;6.196;2024-01-16T05:37:52;100354.88;;;-1.34;99.38
84528;BME280;74768;51.152;6.196;2024-01-16T05:40:18;100354.00;;;-1.39;99.64
84528;BME280;74768;51.152;6.196;2024-01-16T05:42:43;100351.44;;;-1.40;99.50
84528;BME280;74768;51.152;6.196;2024-01-16T05:45:08;100350.56;;;-1.36;99.44
84528;BME280;74768;51.152;6.196;2024-01-16T05:47:34;100353.16;;;-1.39;99.16
84528;BME280;74768;51.152;6.196;2024-01-16T05:49:59;100345.38;;;-1.42;99.57
84528;BME280;74768;51.152;6.196;2024-01-16T05:52:24;100346.25;;;-1.43;98.72
84528;BME280;74768;51.152;6.196;2024-01-16T05:54:50;100344.50;;;-1.46;98.62
84528;BME280;74768;51.152;6.196;2024-01-16T05:57:15;100346.22;;;-1.51;98.89
84528;BME280;74768;51.152;6.196;2024-01-16T05:59:41;100344.53;;;-1.53;98.33
84528;BME280;74768;51.152;6.196;2024-01-16T06:02:06;100341.06;;;-1.54;98.75
84528;BME280;74768;51.152;6.196;2024-01-16T06:04:32;100342.78;;;-1.58;98.74
84528;BME280;74768;51.152;6.196;2024-01-16T06:06:57;100338.44;;;-1.65;98.54
84528;BME280;74768;51.152;6.196;2024-01-16T06:09:22;100336.72;;;-1.66;98.57
84528;BME280;74768;51.152;6.196;2024-01-16T06:11:47;100337.56;;;-1.65;98.49
84528;BME280;74768;51.152;6.196;2024-01-16T06:14:13;100334.16;;;-1.52;98.62
84528;BME280;74768;51.152;6.196;2024-01-16T06:16:38;100337.59;;;-1.59;97.85
84528;BME280;74768;51.152;6.196;2024-01-16T06:19:03;100337.59;;;-1.59;98.27
84528;BME280;74768;51.152;6.196;2024-01-16T06:21:30;100341.91;;;-1.60;97.99
84528;BME280;74768;51.152;6.196;2024-01-16T06:23:55;100347.91;;;-1.71;97.76
84528;BME280;74768;51.152;6.196;2024-01-16T06:26:20;100350.50;;;-1.77;97.59
84528;BME280;74768;51.152;6.196;2024-01-16T06:28:46;100343.53;;;-1.89;97.74
84528;BME280;74768;51.152;6.196;2024-01-16T06:31:12;100344.38;;;-2.01;97.85
84528;BME280;74768;51.152;6.196;2024-01-16T06:33:37;100347.81;;;-2.08;97.91
84528;BME280;74768;51.152;6.196;2024-01-16T06:36:03;100343.53;;;-2.06;98.77
84528;BME280;74768;51.152;6.196;2024-01-16T06:38:31;100339.22;;;-2.05;97.87
84528;BME280;74768;51.152;6.196;2024-01-16T06:40:57;100344.34;;;-2.13;98.80
84528;BME280;74768;51.152;6.196;2024-01-16T06:43:23;100351.19;;;-2.18;98.58
84528;BME280;74768;51.152;6.196;2024-01-16T06:45:48;100350.38;;;-2.12;98.68
84528;BME280;74768;51.152;6.196;2024-01-16T06:48:14;100349.53;;;-2.13;99.25
84528;BME280;74768;51.152;6.196;2024-01-16T06:50:39;100356.41;;;-2.13;98.98
84528;BME280;74768;51.152;6.196;2024-01-16T06:53:04;100353.81;;;-2.16;99.04
84528;BME280;74768;51.152;6.196;2024-01-16T06:55:30;100347.81;;;-2.12;98.97
84528;BME280;74768;51.152;6.196;2024-01-16T06:57:55;100345.19;;;-2.17;98.83
84528;BME280;74768;51.152;6.196;2024-01-16T07:00:20;100351.25;;;-2.13;99.23
84528;BME280;74768;51.152;6.196;2024-01-16T07:02:48;100350.41;;;-2.06;99.75
84528;BME280;74768;51.152;6.196;2024-01-16T07:05:13;100356.44;;;-2.03;99.43
84528;BME280;74768;51.152;6.196;2024-01-16T07:07:38;100359.91;;;-1.99;99.43
84528;BME280;74768;51.152;6.196;2024-01-16T07:10:04;100359.06;;;-1.98;99.26
84528;BME280;74768;51.152;6.196;2024-01-16T07:12:33;100365.91;;;-2.03;99.65
84528;BME280;74768;51.152;6.196;2024-01-16T07:14:58;100365.94;;;-1.99;99.39
84528;BME280;74768;51.152;6.196;2024-01-16T07:17:24;100371.94;;;-2.03;98.75
84528;BME280;74768;51.152;6.196;2024-01-16T07:19:49;100370.22;;;-2.04;98.75
84528;BME280;74768;51.152;6.196;2024-01-16T07:22:15;100371.06;;;-2.11;98.55
84528;BME280;74768;51.152;6.196;2024-01-16T07:24:41;100369.31;;;-2.16;97.52
84528;BME280;74768;51.152;6.196;2024-01-16T07:27:06;100375.34;;;-2.16;97.65
84528;BME280;74768;51.152;6.196;2024-01-16T07:29:31;100377.91;;;-2.19;97.69
84528;BME280;74768;51.152;6.196;2024-01-16T07:31:56;100383.94;;;-2.23;97.67
84528;BME280;74768;51.152;6.196;2024-01-16T07:34:23;100381.38;;;-2.15;97.65
84528;BME280;74768;51.152;6.196;2024-01-16T07:36:50;100384.81;;;-2.18;97.19
84528;BME280;74768;51.152;6.196;2024-01-16T07:39:15;100382.25;;;-2.15;96.68
84528;BME280;74768;51.152;6.196;2024-01-16T07:41:41;100386.53;;;-2.20;96.98
84528;BME280;74768;51.152;6.196;2024-01-16T07:44:06;100385.63;;;-2.26;96.98
84528;BME280;74768;51.152;6.196;2024-01-16T07:46:31;100390.78;;;-2.29;97.59
84528;BME280;74768;51.152;6.196;2024-01-16T07:48:56;100387.38;;;-2.24;97.92
84528;BME280;74768;51.152;6.196;2024-01-16T07:51:22;100386.59;;;-2.12;96.89
84528;BME280;74768;51.152;6.196;2024-01-16T07:53:47;100390.03;;;-2.09;96.68
84528;BME280;74768;51.152;6.196;2024-01-16T07:56:14;100390.03;;;-2.07;96.50
84528;BME280;74768;51.152;6.196;2024-01-16T07:58:39;100385.75;;;-2.02;96.62
84528;BME280;74768;51.152;6.196;2024-01-16T08:01:04;100390.09;;;-1.98;96.70
84528;BME280;74768;51.152;6.196;2024-01-16T08:03:30;100383.19;;;-1.98;96.41
84528;BME280;74768;51.152;6.196;2024-01-16T08:05:55;100383.19;;;-1.96;95.46
84528;BME280;74768;51.152;6.196;2024-01-16T08:08:21;100389.22;;;-1.89;95.63
84528;BME280;74768;51.152;6.196;2024-01-16T08:10:46;100382.38;;;-1.84;95.27
84528;BME280;74768;51.152;6.196;2024-01-16T08:13:12;100397.03;;;-1.79;95.54
84528;BME280;74768;51.152;6.196;2024-01-16T08:15:37;100404.81;;;-1.71;94.42
84528;BME280;74768;51.152;6.196;2024-01-16T08:18:03;100408.31;;;-1.59;94.07
84528;BME280;74768;51.152;6.196;2024-01-16T08:20:28;100409.22;;;-1.49;94.12
84528;BME280;74768;51.152;6.196;2024-01-16T08:22:53;100410.06;;;-1.42;94.51
84528;BME280;74768;51.152;6.196;2024-01-16T08:25:18;100410.94;;;-1.37;94.87
84528;BME280;74768;51.152;6.196;2024-01-16T08:27:44;100406.66;;;-1.29;93.58
84528;BME280;74768;51.152;6.196;2024-01-16T08:30:09;100409.25;;;-1.15;91.92
84528;BME280;74768;51.152;6.196;2024-01-16T08:32:36;100408.38;;;-1.14;91.81
84528;BME280;74768;51.152;6.196;2024-01-16T08:35:02;100410.97;;;-1.08;91.98
84528;BME280;74768;51.152;6.196;2024-01-16T08:37:27;100413.59;;;-0.98;91.99
84528;BME280;74768;51.152;6.196;2024-01-16T08:39:53;100409.25;;;-0.87;92.73
84528;BME280;74768;51.152;6.196;2024-01-16T08:42:18;100398.94;;;-0.81;91.87
84528;BME280;74768;51.152;6.196;2024-01-16T08:44:43;100394.59;;;-0.79;91.17
84528;BME280;74768;51.152;6.196;2024-01-16T08:47:09;100398.88;;;-0.73;92.82
84528;BME280;74768;51.152;6.196;2024-01-16T08:49:34;100404.94;;;-0.62;91.75
84528;BME280;74768;51.152;6.196;2024-01-16T08:52:00;100409.25;;;-0.52;91.14
84528;BME280;74768;51.152;6.196;2024-01-16T08:54:25;100409.22;;;-0.50;88.76
84528;BME280;74768;51.152;6.196;2024-01-16T08:56:53;100401.47;;;-0.56;88.46
84528;BME280;74768;51.152;6.196;2024-01-16T08:59:18;100404.06;;;-0.58;89.55
84528;BME280;74768;51.152;6.196;2024-01-16T09:01:44;100408.38;;;-0.51;89.59
84528;BME280;74768;51.152;6.196;2024-01-16T09:04:09;100401.44;;;-0.36;89.29
84528;BME280;74768;51.152;6.196;2024-01-16T09:06:34;100404.03;;;-0.33;89.06
84528;BME280;74768;51.152;6.196;2024-01-16T09:09:00;100409.22;;;-0.33;88.45
84528;BME280;74768;51.152;6.196;2024-01-16T09:11:25;100412.66;;;-0.28;88.82
84528;BME280;74768;51.152;6.196;2024-01-16T09:13:50;100405.72;;;-0.20;88.95
84528;BME280;74768;51.152;6.196;2024-01-16T09:16:16;100410.06;;;-0.22;87.86
84528;BME280;74768;51.152;6.196;2024-01-16T09:18:42;100414.38;;;-0.18;87.47
84528;BME280;74768;51.152;6.196;2024-01-16T09:21:07;100408.34;;;-0.25;88.14
84528;BME280;74768;51.152;6.196;2024-01-16T09:23:32;100402.28;;;-0.22;86.88
84528;BME280;74768;51.152;6.196;2024-01-16T09:25:57;100397.94;;;-0.19;87.12
84528;BME280;74768;51.152;6.196;2024-01-16T09:28:23;100395.31;;;-0.14;87.47
84528;BME280;74768;51.152;6.196;2024-01-16T09:30:49;100394.44;;;-0.13;86.32
84528;BME280;74768;51.152;6.196;2024-01-16T09:33:14;100400.50;;;-0.14;87.77
84528;BME280;74768;51.152;6.196;2024-01-16T09:35:41;100393.56;;;-0.05;86.26
84528;BME280;74768;51.152;6.196;2024-01-16T09:38:07;100390.97;;;-0.03;86.06
84528;BME280;74768;51.152;6.196;2024-01-16T09:40:33;100384.88;;;0.01;86.16
84528;BME280;74768;51.152;6.196;2024-01-16T09:43:00;100381.44;;;0.02;84.73
84528;BME280;74768;51.152;6.196;2024-01-16T09:45:26;100381.44;;;0.00;86.69
84528;BME280;74768;51.152;6.196;2024-01-16T09:47:54;100384.88;;;0.01;86.49
84528;BME280;74768;51.152;6.196;2024-01-16T09:50:19;100377.97;;;0.03;86.91
84528;BME280;74768;51.152;6.196;2024-01-16T09:52:46;100385.78;;;-0.02;84.30
84528;BME280;74768;51.152;6.196;2024-01-16T09:55:13;100378.88;;;-0.07;85.60
84528;BME280;74768;51.152;6.196;2024-01-16T09:57:40;100381.47;;;-0.01;84.93
84528;BME280;74768;51.152;6.196;2024-01-16T10:00:08;100370.22;;;-0.06;85.08
84528;BME280;74768;51.152;6.196;2024-01-16T10:02:40;100371.09;;;-0.07;84.37
84528;BME280;74768;51.152;6.196;2024-01-16T10:05:07;100361.56;;;-0.05;84.16
84528;BME280;74768;51.152;6.196;2024-01-16T10:07:35;100371.91;;;0.01;85.45
84528;BME280;74768;51.152;6.196;2024-01-16T10:10:02;100363.25;;;0.11;85.38
84528;BME280;74768;51.152;6.196;2024-01-16T10:12:27;100361.44;;;0.25;84.18
84528;BME280;74768;51.152;6.196;2024-01-16T10:14:53;100368.31;;;0.34;85.85
84528;BME280;74768;51.152;6.196;2024-01-16T10:17:20;100359.59;;;0.49;84.46
84528;BME280;74768;51.152;6.196;2024-01-16T10:19:49;100359.59;;;0.49;84.32
84528;BME280;74768;51.152;6.196;2024-01-16T10:22:23;100352.63;;;0.54;84.02
84528;BME280;74768;51.152;6.196;2024-01-16T10:24:50;100347.38;;;0.61;83.49
84528;BME280;74768;51.152;6.196;2024-01-16T10:27:21;100341.31;;;0.65;82.91
84528;BME280;74768;51.152;6.196;2024-01-16T10:29:57;100335.13;;;0.80;81.87
84528;BME280;74768;51.152;6.196;2024-01-16T10:32:35;100344.66;;;0.73;80.97
84528;BME280;74768;51.152;6.196;2024-01-16T10:35:05;100350.78;;;0.69;82.17
84528;BME280;74768;51.152;6.196;2024-01-16T10:37:46;100350.78;;;0.72;83.44
84528;BME280;74768;51.152;6.196;2024-01-16T10:40:21;100348.25;;;0.62;82.53
84528;BME280;74768;51.152;6.196;2024-01-16T10:45:22;100338.88;;;0.39;84.11
84528;BME280;74768;51.152;6.196;2024-01-16T10:47:48;100338.03;;;0.33;83.74
84528;BME280;74768;51.152;6.196;2024-01-16T10:50:14;100337.22;;;0.23;83.23
84528;BME280;74768;51.152;6.196;2024-01-16T10:52:48;100343.34;;;0.12;84.21
84528;BME280;74768;51.152;6.196;2024-01-16T10:55:23;100331.28;;;0.03;84.21
84528;BME280;74768;51.152;6.196;2024-01-16T10:57:49;100333.91;;;-0.06;86.35
84528;BME280;74768;51.152;6.196;2024-01-16T11:00:18;100336.56;;;-0.15;85.52
84528;BME280;74768;51.152;6.196;2024-01-16T11:05:14;100332.31;;;-0.31;83.78
84528;BME280;74768;51.152;6.196;2024-01-16T11:07:42;100334.91;;;-0.39;84.27
84528;BME280;74768;51.152;6.196;2024-01-16T11:10:09;100331.47;;;-0.38;84.16
84528;BME280;74768;51.152;6.196;2024-01-16T11:12:37;100335.75;;;-0.34;84.00
84528;BME280;74768;51.152;6.196;2024-01-16T11:15:03;100331.44;;;-0.33;85.81
84528;BME280;74768;51.152;6.196;2024-01-16T11:17:33;100336.63;;;-0.30;83.43
84528;BME280;74768;51.152;6.196;2024-01-16T11:20:00;100329.72;;;-0.33;85.42
84528;BME280;74768;51.152;6.196;2024-01-16T11:22:26;100332.28;;;-0.22;86.51
84528;BME280;74768;51.152;6.196;2024-01-16T11:25:12;100326.97;;;0.00;84.64
84528;BME280;74768;51.152;6.196;2024-01-16T11:27:40;100319.16;;;0.05;82.94
84528;BME280;74768;51.152;6.196;2024-01-16T11:30:06;100322.66;;;-0.02;84.85
84528;BME280;74768;51.152;6.196;2024-01-16T11:32:40;100323.56;;;-0.12;81.82
84528;BME280;74768;51.152;6.196;2024-01-16T11:35:06;100324.44;;;-0.09;81.51
84528;BME280;74768;51.152;6.196;2024-01-16T11:37:33;100320.16;;;-0.16;81.70
84528;BME280;74768;51.152;6.196;2024-01-16T11:42:43;100316.66;;;-0.10;81.42
84528;BME280;74768;51.152;6.196;2024-01-16T11:50:36;100298.50;;;-0.13;85.88
84528;BME280;74768;51.152;6.196;2024-01-16T11:53:01;100303.69;;;-0.10;82.48
84528;BME280;74768;51.152;6.196;2024-01-16T11:55:34;100295.03;;;-0.12;85.02
84528;BME280;74768;51.152;6.196;2024-01-16T12:01:05;100299.44;;;-0.23;83.74
84528;BME280;74768;51.152;6.196;2024-01-16T12:03:30;100292.50;;;-0.27;84.80
84528;BME280;74768;51.152;6.196;2024-01-16T12:05:59;100301.16;;;-0.24;85.26
84528;BME280;74768;51.152;6.196;2024-01-16T12:08:25;100298.56;;;-0.25;85.85
84528;BME280;74768;51.152;6.196;2024-01-16T12:10:50;100292.47;;;-0.20;86.26
84528;BME280;74768;51.152;6.196;2024-01-16T12:13:16;100286.44;;;-0.22;83.80
84528;BME280;74768;51.152;6.196;2024-01-16T12:15:41;100273.47;;;-0.17;85.71
84528;BME280;74768;51.152;6.196;2024-01-16T12:18:08;100276.06;;;-0.16;84.48
84528;BME280;74768;51.152;6.196;2024-01-16T12:20:35;100270.88;;;-0.16;83.67
84528;BME280;74768;51.152;6.196;2024-01-16T12:23:03;100263.09;;;-0.20;82.92
84528;BME280;74768;51.152;6.196;2024-01-16T12:25:30;100255.31;;;-0.19;83.48
84528;BME280;74768;51.152;6.196;2024-01-16T12:27:59;100252.69;;;-0.13;83.65
84528;BME280;74768;51.152;6.196;2024-01-16T12:30:26;100257.88;;;-0.14;84.00
84528;BME280;74768;51.152;6.196;2024-01-16T12:35:33;100251.78;;;-0.07;82.27
84528;BME280;74768;51.152;6.196;2024-01-16T12:37:59;100255.28;;;-0.11;81.42
84528;BME280;74768;51.152;6.196;2024-01-16T12:40:25;100250.13;;;-0.19;83.44
84528;BME280;74768;51.152;6.196;2024-01-16T12:42:51;100255.31;;;-0.16;82.09
84528;BME280;74768;51.152;6.196;2024-01-16T12:45:18;100246.59;;;-0.03;82.25
84528;BME280;74768;51.152;6.196;2024-01-16T12:47:44;100249.19;;;-0.07;81.15
84528;BME280;74768;51.152;6.196;2024-01-16T12:50:10;100240.53;;;-0.06;80.19
84528;BME280;74768;51.152;6.196;2024-01-16T12:52:35;100240.53;;;-0.03;80.93
84528;BME280;74768;51.152;6.196;2024-01-16T12:55:00;100237.94;;;-0.06;83.74
84528;BME280;74768;51.152;6.196;2024-01-16T12:57:26;100241.44;;;-0.10;80.46
84528;BME280;74768;51.152;6.196;2024-01-16T12:59:52;100234.56;;;-0.19;83.86
84528;BME280;74768;51.152;6.196;2024-01-16T13:02:22;100232.75;;;-0.06;80.29
84528;BME280;74768;51.152;6.196;2024-01-16T13:04:48;100229.34;;;-0.11;80.51
84528;BME280;74768;51.152;6.196;2024-01-16T13:07:16;100230.19;;;-0.11;81.32